Khosta (Sochi), Russia
Current Conditions -  °F | °C
As of 7:30 PM on Friday 21 Nov 2014 (Local Time) from URSS Reporting Station
Overcast Overcast  
Wind Chill: 46°   Ceiling: 23000
Heat Index: 48°   Visibility: 6mi
Dew Point: 41°   Wind: 4mph
Humidity: 76%   Direction: 70°ENE
Pressure: 29.88"   Gusts: NA
Location:  43.57°N, 39.75°E
Report Text: URSS 211630Z 07002MPS 9999 FEW160 OVC230 09/05 Q1012 NOSIG RMKR02/06003MPS QFE758 06000070 02000070
Loading
Personal Weather Stations






























Interactive Weather Map New forecast layout! Learn more

10-Day Weather Forecast

Advertisements
Track Severe Weather on mobile